createdAt,value
2022-11-05T00:00:33.921Z,17.93
2022-11-05T00:03:44.144Z,20.97
2022-11-05T00:06:29.097Z,19.87
2022-11-05T00:09:13.949Z,21.87
2022-11-05T00:11:58.785Z,21.20
2022-11-05T00:14:43.591Z,20.10
2022-11-05T00:17:09.755Z,19.70
2022-11-05T00:19:36.181Z,18.27
2022-11-05T00:22:21.235Z,19.63
2022-11-05T00:25:06.364Z,19.80
2022-11-05T00:27:33.542Z,18.17
2022-11-05T00:30:00.516Z,18.83
2022-11-05T00:32:26.704Z,19.70
2022-11-05T00:34:53.126Z,16.80
2022-11-05T00:37:19.245Z,16.27
2022-11-05T00:39:45.683Z,17.73
2022-11-05T00:42:30.358Z,19.50
2022-11-05T00:45:02.657Z,17.20
2022-11-05T00:47:49.199Z,18.03
2022-11-05T00:50:16.355Z,17.50
2022-11-05T00:53:00.778Z,16.47
2022-11-05T00:55:42.077Z,31.27
2022-11-05T00:58:13.806Z,17.90
2022-11-05T01:00:43.309Z,17.07
2022-11-05T01:03:13.333Z,14.93
2022-11-05T01:05:43.295Z,14.80
2022-11-05T01:08:10.536Z,14.43
2022-11-05T01:10:57.274Z,14.50
2022-11-05T01:13:29.336Z,13.67
2022-11-05T01:15:56.589Z,13.00
2022-11-05T01:18:23.567Z,12.17
2022-11-05T01:20:50.356Z,12.40
2022-11-05T01:23:17.096Z,14.20
2022-11-05T01:25:44.032Z,15.10
2022-11-05T01:28:10.263Z,13.43
2022-11-05T01:30:37.624Z,12.97
2022-11-05T01:33:04.153Z,11.73
2022-11-05T01:35:30.544Z,12.90
2022-11-05T01:37:56.665Z,11.27
2022-11-05T01:40:24.645Z,12.07
2022-11-05T01:42:50.844Z,12.20
2022-11-05T01:45:18.834Z,10.63
2022-11-05T01:47:53.250Z,10.93
2022-11-05T01:50:22.429Z,10.50
2022-11-05T01:52:52.133Z,10.27
2022-11-05T01:55:25.729Z,9.87
2022-11-05T01:57:57.154Z,9.77
2022-11-05T02:00:23.599Z,8.90
2022-11-05T02:02:50.364Z,9.70
2022-11-05T02:05:17.079Z,8.87
2022-11-05T02:07:46.729Z,9.87
2022-11-05T02:10:15.165Z,9.83
2022-11-05T02:12:44.694Z,8.57
2022-11-05T02:15:18.706Z,9.63
2022-11-05T02:18:10.576Z,9.43
2022-11-05T02:20:49.413Z,9.40
2022-11-05T02:23:50.466Z,9.10
2022-11-05T02:26:44.949Z,8.40
2022-11-05T02:29:41.489Z,8.50
2022-11-05T02:32:36.881Z,9.33
2022-11-05T02:35:16.830Z,9.13
2022-11-05T02:37:51.191Z,9.20
2022-11-05T02:40:35.652Z,8.53
2022-11-05T02:43:15.438Z,9.00
2022-11-05T02:45:42.016Z,9.10
2022-11-05T02:48:25.176Z,8.90
2022-11-05T02:51:21.193Z,15.10
2022-11-05T02:54:19.145Z,10.20
2022-11-05T02:56:49.376Z,9.33
2022-11-05T02:59:15.791Z,9.90
2022-11-05T03:01:45.151Z,9.80
2022-11-05T03:04:15.930Z,8.57
2022-11-05T03:06:47.884Z,8.40
2022-11-05T03:09:23.696Z,9.67
2022-11-05T03:12:20.703Z,8.33
2022-11-05T03:14:54.653Z,8.37
2022-11-05T03:17:36.199Z,7.77
2022-11-05T03:20:23.957Z,7.93
2022-11-05T03:22:59.168Z,9.57
2022-11-05T03:25:28.622Z,7.13
2022-11-05T03:28:00.750Z,7.83
2022-11-05T03:30:27.335Z,7.97
2022-11-05T03:33:02.773Z,8.10
2022-11-05T03:35:35.644Z,6.43
2022-11-05T03:38:08.977Z,5.27
2022-11-05T03:40:38.190Z,4.87
2022-11-05T03:43:07.389Z,4.37
2022-11-05T03:45:41.132Z,4.30
2022-11-05T03:48:10.857Z,3.90
2022-11-05T03:50:52.039Z,2.83
2022-11-05T03:53:25.036Z,3.70
2022-11-05T03:56:14.806Z,3.40
2022-11-05T03:58:43.814Z,3.93
2022-11-05T04:01:11.828Z,3.90
2022-11-05T04:03:38.146Z,4.00
2022-11-05T04:06:26.024Z,3.90
2022-11-05T04:09:11.086Z,4.10
2022-11-05T04:11:56.208Z,4.23
2022-11-05T04:14:22.387Z,3.97
2022-11-05T04:17:08.687Z,4.50
2022-11-05T04:19:55.624Z,3.97
2022-11-05T04:22:41.822Z,4.53
2022-11-05T04:25:08.255Z,4.77
2022-11-05T04:27:35.316Z,3.80
2022-11-05T04:30:20.876Z,3.30
2022-11-05T04:33:03.580Z,3.50
2022-11-05T04:35:38.857Z,3.13
2022-11-05T04:38:08.375Z,3.07
2022-11-05T04:40:35.137Z,3.70
2022-11-05T04:43:01.594Z,2.87
2022-11-05T04:45:30.461Z,2.77
2022-11-05T04:47:56.923Z,2.90
2022-11-05T04:50:23.592Z,2.77
2022-11-05T04:52:50.208Z,3.57
2022-11-05T04:55:16.289Z,3.00
2022-11-05T04:57:43.027Z,3.07
2022-11-05T05:00:11.038Z,3.00
2022-11-05T05:02:37.556Z,3.10
2022-11-05T05:05:05.426Z,3.47
2022-11-05T05:07:33.359Z,2.93
2022-11-05T05:10:04.468Z,2.97
2022-11-05T05:12:32.388Z,2.70
2022-11-05T05:14:58.602Z,2.87
2022-11-05T05:17:25.619Z,2.90
2022-11-05T05:20:10.592Z,3.10
2022-11-05T05:22:36.984Z,2.83
2022-11-05T05:25:03.823Z,3.27
2022-11-05T05:27:30.703Z,3.20
2022-11-05T05:29:58.738Z,2.97
2022-11-05T05:32:25.940Z,3.00
2022-11-05T05:34:52.087Z,3.27
2022-11-05T05:37:19.502Z,3.07
2022-11-05T05:39:47.090Z,2.83
2022-11-05T05:42:13.747Z,3.40
2022-11-05T05:44:39.945Z,2.83
2022-11-05T05:47:06.413Z,2.73
2022-11-05T05:49:32.564Z,3.20
2022-11-05T05:51:59.046Z,2.70
2022-11-05T05:54:29.263Z,2.30
2022-11-05T05:56:59.110Z,2.67
2022-11-05T05:59:25.288Z,2.30
2022-11-05T06:01:51.851Z,2.80
2022-11-05T06:04:18.987Z,3.80
2022-11-05T06:06:46.769Z,3.30
2022-11-05T06:09:13.913Z,4.97
2022-11-05T06:11:40.778Z,2.33
2022-11-05T06:14:10.646Z,2.67
2022-11-05T06:16:38.653Z,2.43
2022-11-05T06:19:06.259Z,2.73
2022-11-05T06:21:32.918Z,3.33
2022-11-05T06:24:01.449Z,2.70
2022-11-05T06:26:28.373Z,2.40
2022-11-05T06:28:54.686Z,2.60
2022-11-05T06:31:21.280Z,2.83
2022-11-05T06:33:47.933Z,2.70
2022-11-05T06:36:16.743Z,2.47
2022-11-05T06:38:43.235Z,2.37
2022-11-05T06:41:10.758Z,2.33
2022-11-05T06:43:38.170Z,2.87
2022-11-05T06:46:05.676Z,3.60
2022-11-05T06:48:32.411Z,2.47
2022-11-05T06:50:58.935Z,2.87
2022-11-05T06:53:25.141Z,3.13
2022-11-05T06:55:51.763Z,2.33
2022-11-05T06:58:18.177Z,2.73
2022-11-05T07:00:44.913Z,2.30
2022-11-05T07:03:12.281Z,2.27
2022-11-05T07:05:43.844Z,2.73
2022-11-05T07:08:09.972Z,2.80
2022-11-05T07:10:36.408Z,2.77
2022-11-05T07:13:07.707Z,2.60
2022-11-05T07:15:36.104Z,2.03
2022-11-05T07:18:02.786Z,2.40
2022-11-05T07:20:33.445Z,2.40
2022-11-05T07:23:10.912Z,3.37
2022-11-05T07:25:38.018Z,2.47
2022-11-05T07:28:04.166Z,2.70
2022-11-05T07:30:32.520Z,2.23
2022-11-05T07:32:58.738Z,3.03
2022-11-05T07:35:25.589Z,2.00
2022-11-05T07:37:53.433Z,3.20
2022-11-05T07:40:21.676Z,2.53
2022-11-05T07:42:50.739Z,2.37
2022-11-05T07:45:18.113Z,2.37
2022-11-05T07:47:49.109Z,2.30
2022-11-05T07:50:18.162Z,4.67
2022-11-05T07:52:45.038Z,2.70
2022-11-05T07:55:12.647Z,2.10
2022-11-05T07:57:50.248Z,2.27
2022-11-05T08:00:20.825Z,2.80
2022-11-05T08:03:08.743Z,2.60
2022-11-05T08:05:37.814Z,2.03
2022-11-05T08:08:05.832Z,2.50
2022-11-05T08:10:33.419Z,2.67
2022-11-05T08:12:59.691Z,2.40
2022-11-05T08:15:26.107Z,2.37
2022-11-05T08:18:03.443Z,2.23
2022-11-05T08:20:30.634Z,2.37
2022-11-05T08:22:57.153Z,3.17
2022-11-05T08:25:24.259Z,3.10
2022-11-05T08:28:11.175Z,2.20
2022-11-05T08:30:37.646Z,2.87
2022-11-05T08:33:06.718Z,2.17
2022-11-05T08:35:34.736Z,2.17
2022-11-05T08:38:03.119Z,3.63
2022-11-05T08:40:31.913Z,2.97
2022-11-05T08:42:59.789Z,2.70
2022-11-05T08:45:26.910Z,2.30
2022-11-05T08:48:00.404Z,1.90
2022-11-05T08:50:27.601Z,2.03
2022-11-05T08:52:53.798Z,3.70
2022-11-05T08:55:20.193Z,3.20
2022-11-05T08:57:46.280Z,2.60
2022-11-05T09:00:14.544Z,2.30
2022-11-05T09:02:41.208Z,2.17
2022-11-05T09:05:08.037Z,2.00
2022-11-05T09:07:34.144Z,2.37
2022-11-05T09:10:02.573Z,2.40
2022-11-05T09:12:28.699Z,2.47
2022-11-05T09:14:55.129Z,2.57
2022-11-05T09:17:21.489Z,2.20
2022-11-05T09:19:48.352Z,2.17
2022-11-05T09:22:14.828Z,2.43
2022-11-05T09:24:42.481Z,2.50
2022-11-05T09:27:13.827Z,2.27
2022-11-05T09:29:41.020Z,2.73
2022-11-05T09:32:07.957Z,2.57
2022-11-05T09:34:35.306Z,2.83
2022-11-05T09:37:02.273Z,3.20
2022-11-05T09:39:28.857Z,3.60
2022-11-05T09:42:03.810Z,4.97
2022-11-05T09:44:44.219Z,2.93
2022-11-05T09:47:41.394Z,2.93
2022-11-05T09:50:24.033Z,3.13
2022-11-05T09:52:50.225Z,2.60
2022-11-05T09:55:39.032Z,2.97
2022-11-05T09:59:02.988Z,2.70
2022-11-05T10:01:36.428Z,2.67
2022-11-05T10:04:11.719Z,2.80
2022-11-05T10:06:46.159Z,3.07
2022-11-05T10:09:18.416Z,3.00
2022-11-05T10:11:53.199Z,3.03
2022-11-05T10:14:25.279Z,2.90
2022-11-05T10:17:07.472Z,2.67
2022-11-05T10:19:43.639Z,3.00
2022-11-05T10:22:15.690Z,3.50
2022-11-05T10:24:49.422Z,3.47
2022-11-05T10:27:22.476Z,3.13
2022-11-05T10:29:49.609Z,3.50
2022-11-05T10:32:41.315Z,3.63
2022-11-05T10:35:13.857Z,3.50
2022-11-05T10:37:41.231Z,3.80
2022-11-05T10:40:28.458Z,2.97
2022-11-05T10:43:16.035Z,2.97
2022-11-05T10:46:19.217Z,2.00
2022-11-05T10:49:23.429Z,2.60
2022-11-05T10:51:56.360Z,2.87
2022-11-05T10:54:29.757Z,2.53
2022-11-05T10:56:56.250Z,2.27
2022-11-05T10:59:26.140Z,2.60
2022-11-05T11:02:15.827Z,3.23
2022-11-05T11:04:42.665Z,2.30
2022-11-05T11:07:21.625Z,2.70
2022-11-05T11:09:49.271Z,3.00
2022-11-05T11:12:23.767Z,3.63
2022-11-05T11:15:02.466Z,3.40
2022-11-05T11:17:31.706Z,3.60
2022-11-05T11:20:26.433Z,2.87
2022-11-05T11:23:01.452Z,2.27
2022-11-05T11:25:31.760Z,2.83
2022-11-05T11:28:03.023Z,2.90
2022-11-05T11:30:30.234Z,2.70
2022-11-05T11:33:06.010Z,2.80
2022-11-05T11:35:36.929Z,2.70
2022-11-05T11:38:05.483Z,2.40
2022-11-05T11:40:35.862Z,2.77
2022-11-05T11:43:14.772Z,3.00
2022-11-05T11:45:48.984Z,3.10
2022-11-05T11:48:24.842Z,3.17
2022-11-05T11:50:51.663Z,2.40
2022-11-05T11:53:20.870Z,2.67
2022-11-05T11:55:59.131Z,3.40
2022-11-05T11:58:36.679Z,3.10
2022-11-05T12:01:09.244Z,2.80
2022-11-05T12:03:49.260Z,2.87
2022-11-05T12:06:28.070Z,3.07
2022-11-05T12:09:15.737Z,2.73
2022-11-05T12:11:50.075Z,2.90
2022-11-05T12:14:50.757Z,3.10
2022-11-05T12:17:46.670Z,2.90
2022-11-05T12:20:16.146Z,2.13
2022-11-05T12:23:11.632Z,2.97
2022-11-05T12:25:59.553Z,2.30
2022-11-05T12:29:04.666Z,2.83
2022-11-05T12:31:53.051Z,2.70
2022-11-05T12:34:30.651Z,2.63
2022-11-05T12:37:37.502Z,2.77
2022-11-05T12:40:03.564Z,3.70
2022-11-05T12:42:46.773Z,2.93
2022-11-05T12:45:37.336Z,2.33
2022-11-05T12:48:32.806Z,2.67
2022-11-05T12:51:14.408Z,2.83
2022-11-05T12:53:41.103Z,2.83
2022-11-05T12:56:20.654Z,3.30
2022-11-05T12:58:54.302Z,2.97
2022-11-05T13:01:31.646Z,2.40
2022-11-05T13:04:02.491Z,2.20
2022-11-05T13:06:39.222Z,2.07
2022-11-05T13:09:05.770Z,1.87
2022-11-05T13:11:43.588Z,1.87
2022-11-05T13:14:34.427Z,2.20
2022-11-05T13:17:10.875Z,1.80
2022-11-05T13:19:55.989Z,2.50
2022-11-05T13:22:29.849Z,2.07
2022-11-05T13:25:00.537Z,2.10
2022-11-05T13:27:45.540Z,2.00
2022-11-05T13:30:17.317Z,2.30
2022-11-05T13:32:48.742Z,1.73
2022-11-05T13:35:21.434Z,1.87
2022-11-05T13:38:12.278Z,2.00
2022-11-05T13:41:29.711Z,1.60
2022-11-05T13:44:26.319Z,2.03
2022-11-05T13:47:13.718Z,1.70
2022-11-05T13:50:17.765Z,1.60
2022-11-05T13:52:47.378Z,1.60
2022-11-05T13:55:30.989Z,1.90
2022-11-05T13:58:33.480Z,1.97
2022-11-05T14:01:24.054Z,1.90
2022-11-05T14:03:53.137Z,2.17
2022-11-05T14:06:26.346Z,1.83
2022-11-05T14:08:58.042Z,2.70
2022-11-05T14:11:46.980Z,2.03
2022-11-05T14:14:21.048Z,2.17
2022-11-05T14:17:06.028Z,1.90
2022-11-05T14:19:57.548Z,2.20
2022-11-05T14:22:33.193Z,1.67
2022-11-05T14:25:01.575Z,2.30
2022-11-05T14:27:31.189Z,1.87
2022-11-05T14:29:57.379Z,1.90
2022-11-05T14:32:27.051Z,1.90
2022-11-05T14:35:20.824Z,2.27
2022-11-05T14:37:55.730Z,2.60
2022-11-05T14:40:22.028Z,2.53
2022-11-05T14:42:51.191Z,2.83
2022-11-05T14:45:32.458Z,3.27
2022-11-05T14:48:20.749Z,2.50
2022-11-05T14:50:48.556Z,2.23
2022-11-05T14:53:24.933Z,4.83
2022-11-05T14:56:10.886Z,1.93
2022-11-05T14:58:42.565Z,2.00
2022-11-05T15:01:31.519Z,2.10
2022-11-05T15:04:15.655Z,3.53
2022-11-05T15:07:01.840Z,5.50
2022-11-05T15:10:02.287Z,4.77
2022-11-05T15:13:00.909Z,5.60
2022-11-05T15:15:38.199Z,5.80
2022-11-05T15:18:16.265Z,7.30
2022-11-05T15:20:46.269Z,8.93
2022-11-05T15:23:16.387Z,9.60
2022-11-05T15:25:53.383Z,9.17
2022-11-05T15:28:36.243Z,8.43
2022-11-05T15:31:05.525Z,6.50
2022-11-05T15:33:32.541Z,5.23
2022-11-05T15:36:22.255Z,5.73
2022-11-05T15:39:15.182Z,4.90
2022-11-05T15:41:35.293Z,5.47
2022-11-05T15:44:02.303Z,5.70
2022-11-05T15:46:29.276Z,5.63
2022-11-05T15:49:09.185Z,8.97
2022-11-05T15:51:35.689Z,6.00
2022-11-05T15:56:54.852Z,4.60
2022-11-05T15:59:23.782Z,3.50
2022-11-05T16:02:23.148Z,3.33
2022-11-05T16:04:50.615Z,2.37
2022-11-05T16:07:18.805Z,3.40
2022-11-05T16:09:55.503Z,3.90
2022-11-05T16:12:36.148Z,4.67
2022-11-05T16:15:08.501Z,5.47
2022-11-05T16:17:46.154Z,7.50
2022-11-05T16:20:22.647Z,11.33
2022-11-05T16:22:52.154Z,14.57
2022-11-05T16:25:27.840Z,13.63
2022-11-05T16:27:56.640Z,15.43
2022-11-05T16:30:24.567Z,16.60
2022-11-05T16:32:51.779Z,24.37
2022-11-05T16:35:24.833Z,23.60
2022-11-05T16:37:52.526Z,21.37
2022-11-05T16:40:24.585Z,15.13
2022-11-05T16:42:53.161Z,15.17
2022-11-05T16:45:23.290Z,12.97
2022-11-05T16:47:50.146Z,12.37
2022-11-05T16:50:19.978Z,13.07
2022-11-05T16:52:47.129Z,17.73
2022-11-05T16:55:15.624Z,15.43
2022-11-05T16:57:44.895Z,8.73
2022-11-05T17:00:15.842Z,10.83
2022-11-05T17:02:43.511Z,15.27
2022-11-05T17:05:26.968Z,13.23
2022-11-05T17:07:54.795Z,11.43
2022-11-05T17:10:22.873Z,11.83
2022-11-05T17:12:50.247Z,40.30
2022-11-05T17:15:30.359Z,78.27
2022-11-05T17:17:58.182Z,162.50
2022-11-05T17:20:38.275Z,183.47
2022-11-05T17:23:07.445Z,180.77
2022-11-05T17:25:33.881Z,103.33
2022-11-05T17:28:01.108Z,101.13
2022-11-05T17:30:27.511Z,84.60
2022-11-05T17:32:54.243Z,51.77
2022-11-05T17:35:22.014Z,30.87
2022-11-05T17:37:49.622Z,32.27
2022-11-05T17:40:19.593Z,34.70
2022-11-05T17:42:50.220Z,38.50
2022-11-05T17:45:17.213Z,33.50
2022-11-05T17:47:44.105Z,32.00
2022-11-05T17:50:12.789Z,26.70
2022-11-05T17:52:39.227Z,20.87
2022-11-05T17:55:15.771Z,20.30
2022-11-05T17:57:52.005Z,12.97
2022-11-05T18:00:23.088Z,15.70
2022-11-05T18:02:52.386Z,14.60
2022-11-05T18:05:20.475Z,13.33
2022-11-05T18:07:48.198Z,11.17
2022-11-05T18:10:15.649Z,11.80
2022-11-05T18:12:43.438Z,13.10
2022-11-05T18:15:10.151Z,12.73
2022-11-05T18:17:37.122Z,14.50
2022-11-05T18:20:09.122Z,11.73
2022-11-05T18:22:38.000Z,12.17
2022-11-05T18:25:05.731Z,14.53
2022-11-05T18:27:32.936Z,12.97
2022-11-05T18:29:59.308Z,15.20
2022-11-05T18:32:26.280Z,24.20
2022-11-05T18:34:53.182Z,26.43
2022-11-05T18:37:19.735Z,27.00
2022-11-05T18:39:49.035Z,20.27
2022-11-05T18:42:16.724Z,13.90
2022-11-05T18:44:43.029Z,24.07
2022-11-05T18:47:10.141Z,29.60
2022-11-05T18:49:36.876Z,19.53
2022-11-05T18:52:04.327Z,15.30
2022-11-05T18:54:30.744Z,16.70
2022-11-05T18:56:57.461Z,14.60
2022-11-05T18:59:37.755Z,14.50
2022-11-05T19:02:07.163Z,11.70
2022-11-05T19:04:36.938Z,12.97
2022-11-05T19:07:05.442Z,12.37
2022-11-05T19:09:37.760Z,13.73
2022-11-05T19:12:06.500Z,12.00
2022-11-05T19:14:34.552Z,12.17
2022-11-05T19:17:01.919Z,12.63
2022-11-05T19:19:28.495Z,12.13
2022-11-05T19:21:55.398Z,12.07
2022-11-05T19:24:21.828Z,11.60
2022-11-05T19:26:49.933Z,12.03
2022-11-05T19:29:16.386Z,12.77
2022-11-05T19:31:43.029Z,12.40
2022-11-05T19:34:09.280Z,21.27
2022-11-05T19:36:36.190Z,21.33
2022-11-05T19:39:05.760Z,16.50
2022-11-05T19:41:32.372Z,47.77
2022-11-05T19:44:00.989Z,13.40
2022-11-05T19:46:31.887Z,14.70
2022-11-05T19:49:01.787Z,12.37
2022-11-05T19:51:30.474Z,11.43
2022-11-05T19:53:59.250Z,12.67
2022-11-05T19:56:29.095Z,14.73
2022-11-05T19:58:56.672Z,15.93
2022-11-05T20:01:25.356Z,14.03
2022-11-05T20:03:53.074Z,14.37
2022-11-05T20:06:31.236Z,15.50
2022-11-05T20:09:20.622Z,20.93
2022-11-05T20:11:48.748Z,21.47
2022-11-05T20:14:15.701Z,26.27
2022-11-05T20:16:42.310Z,24.30
2022-11-05T20:19:12.300Z,28.00
2022-11-05T20:21:38.936Z,26.47
2022-11-05T20:24:06.039Z,23.77
2022-11-05T20:26:33.109Z,20.47
2022-11-05T20:29:02.527Z,21.17
2022-11-05T20:31:29.628Z,203.47
2022-11-05T20:33:56.063Z,64.20
2022-11-05T20:36:25.152Z,94.43
2022-11-05T20:39:02.298Z,53.67
2022-11-05T20:41:30.026Z,40.40
2022-11-05T20:43:56.198Z,22.60
2022-11-05T20:46:25.267Z,21.27
2022-11-05T20:48:52.604Z,32.00
2022-11-05T20:51:21.648Z,37.20
2022-11-05T20:53:48.388Z,30.87
2022-11-05T20:56:22.015Z,20.37
2022-11-05T20:58:48.646Z,18.77
2022-11-05T21:01:15.917Z,17.77
2022-11-05T21:03:44.471Z,20.33
2022-11-05T21:06:11.971Z,17.27
2022-11-05T21:08:38.553Z,15.30
2022-11-05T21:11:06.353Z,16.17
2022-11-05T21:13:32.683Z,15.77
2022-11-05T21:16:00.112Z,16.37
2022-11-05T21:18:28.753Z,16.67
2022-11-05T21:20:55.974Z,16.13
2022-11-05T21:23:22.275Z,16.43
2022-11-05T21:25:49.016Z,14.43
2022-11-05T21:28:16.053Z,15.77
2022-11-05T21:30:45.343Z,15.93
2022-11-05T21:33:13.784Z,14.97
2022-11-05T21:35:43.334Z,15.27
2022-11-05T21:38:11.401Z,14.53
2022-11-05T21:40:39.541Z,12.67
2022-11-05T21:43:06.361Z,14.03
2022-11-05T21:45:33.174Z,13.07
2022-11-05T21:47:59.462Z,11.60
2022-11-05T21:50:45.795Z,13.30
2022-11-05T21:53:34.327Z,12.87
2022-11-05T21:56:36.177Z,13.40
2022-11-05T21:59:22.495Z,13.03
2022-11-05T22:01:49.847Z,14.10
2022-11-05T22:04:17.041Z,12.30
2022-11-05T22:06:44.415Z,12.77
2022-11-05T22:09:10.786Z,13.27
2022-11-05T22:11:37.893Z,12.50
2022-11-05T22:14:04.464Z,12.50
2022-11-05T22:16:31.048Z,13.17
2022-11-05T22:18:57.610Z,15.20
2022-11-05T22:21:24.175Z,13.60
2022-11-05T22:23:51.773Z,34.07
2022-11-05T22:26:18.631Z,26.50
2022-11-05T22:28:44.857Z,37.43
2022-11-05T22:31:13.189Z,29.07
2022-11-05T22:33:39.406Z,23.67
2022-11-05T22:36:06.411Z,20.63
2022-11-05T22:38:32.747Z,21.17
2022-11-05T22:40:59.697Z,30.27
2022-11-05T22:43:26.638Z,30.53
2022-11-05T22:45:53.491Z,30.07
2022-11-05T22:48:19.636Z,24.50
2022-11-05T22:50:46.121Z,21.50
2022-11-05T22:53:12.265Z,18.77
2022-11-05T22:55:39.138Z,20.13
2022-11-05T22:58:05.568Z,20.90
2022-11-05T23:00:36.838Z,19.10
2022-11-05T23:03:03.443Z,17.20
2022-11-05T23:05:30.201Z,15.70
2022-11-05T23:08:15.575Z,16.53
2022-11-05T23:11:00.994Z,16.83
2022-11-05T23:13:27.169Z,17.17
2022-11-05T23:16:12.458Z,17.27
2022-11-05T23:18:57.660Z,17.20
2022-11-05T23:21:42.702Z,16.00
2022-11-05T23:24:12.101Z,16.20
2022-11-05T23:26:51.317Z,15.73
2022-11-05T23:29:23.138Z,15.83
2022-11-05T23:32:08.287Z,16.40
2022-11-05T23:34:35.151Z,15.20
2022-11-05T23:37:21.109Z,16.00
2022-11-05T23:39:47.396Z,19.27
2022-11-05T23:42:32.122Z,17.87
2022-11-05T23:45:17.824Z,18.00
2022-11-05T23:48:03.046Z,17.77
2022-11-05T23:50:33.196Z,16.87
2022-11-05T23:53:03.582Z,18.13
2022-11-05T23:55:30.503Z,17.27
2022-11-05T23:57:57.155Z,16.70
